Time;durP1;ratioP1;P1;durP2;ratioP2;P2;SDS_P1;SDS_P2;PMS_P1;PMS_P2;Temp;Humidity;BMP_temperature;BMP_pressure;BME280_temperature;BME280_humidity;BME280_pressure;Samples;Min_cycle;Max_cycle;Signal;HPM_P1;HPM_P2
2021/08/01 00:02:16;;;;;;;2.90;2.80;;;;;;;18.35;81.99;99735.34;5960469;30;20216;-76
2021/08/01 00:05:23;;;;;;;3.15;3.03;;;;;;;18.26;82.55;99733.53;5959888;30;20245;-76
2021/08/01 00:08:28;;;;;;;4.10;3.53;;;;;;;18.28;82.89;99734.88;5959203;29;20466;-76
2021/08/01 00:11:36;;;;;;;3.08;2.83;;;;;;;18.31;82.48;99728.75;5959035;29;20308;-76
2021/08/01 00:14:40;;;;;;;4.28;2.85;;;;;;;18.31;82.00;99739.78;5960689;29;20221;-76
2021/08/01 00:17:45;;;;;;;3.08;2.80;;;;;;;18.24;82.25;99733.81;5959436;30;20216;-75
2021/08/01 00:20:52;;;;;;;2.92;2.92;;;;;;;18.22;82.48;99730.53;5959300;30;20489;-76
2021/08/01 00:23:56;;;;;;;3.13;3.03;;;;;;;18.19;82.72;99735.81;5959303;30;20204;-76
2021/08/01 00:27:02;;;;;;;3.63;3.33;;;;;;;18.19;82.83;99731.13;5960445;30;20225;-76
2021/08/01 00:30:09;;;;;;;3.50;3.20;;;;;;;18.19;83.37;99736.63;5959232;30;20445;-75
2021/08/01 00:33:15;;;;;;;3.28;3.17;;;;;;;18.20;83.42;99724.50;5960437;29;20363;-76
2021/08/01 00:36:24;;;;;;;3.20;3.10;;;;;;;18.22;83.52;99729.69;5960007;30;20228;-76
2021/08/01 00:39:29;;;;;;;3.05;2.85;;;;;;;18.16;83.78;99731.69;5960280;30;20200;-76
2021/08/01 00:42:35;;;;;;;2.97;2.70;;;;;;;18.22;83.45;99729.69;5960685;30;20194;-75
2021/08/01 00:45:40;;;;;;;3.53;3.33;;;;;;;18.24;83.50;99722.78;5960035;30;20206;-75
2021/08/01 00:48:47;;;;;;;3.50;2.95;;;;;;;18.24;83.56;99730.22;5958117;30;20497;-75
2021/08/01 00:51:57;;;;;;;3.03;2.92;;;;;;;18.19;84.26;99735.81;5959994;30;20265;-76
2021/08/01 00:55:04;;;;;;;3.28;3.20;;;;;;;18.20;84.69;99735.53;5959477;30;20224;-76
2021/08/01 00:58:13;;;;;;;3.47;3.38;;;;;;;18.21;84.44;99739.91;5957457;30;20201;-76
2021/08/01 01:01:22;;;;;;;3.05;2.95;;;;;;;18.20;84.59;99732.78;5958786;30;20216;-76
2021/08/01 01:04:45;;;;;;;3.40;3.20;;;;;;;18.15;85.14;99733.63;5957974;30;20276;-76
2021/08/01 01:07:57;;;;;;;2.97;2.88;;;;;;;18.20;85.07;99732.78;5958199;29;20210;-76
2021/08/01 01:11:22;;;;;;;3.05;2.90;;;;;;;18.24;84.41;99731.06;5958149;30;20201;-75
2021/08/01 01:14:31;;;;;;;3.25;3.00;;;;;;;18.23;84.76;99732.19;5957345;30;20233;-76
2021/08/01 01:17:37;;;;;;;3.20;3.00;;;;;;;18.18;85.28;99725.91;5959077;30;20194;-75
2021/08/01 01:21:20;;;;;;;3.45;3.25;;;;;;;18.17;84.82;99722.31;5957038;29;20216;-76
2021/08/01 01:24:28;;;;;;;3.13;3.00;;;;;;;18.12;85.86;99714.09;5947187;30;20245;-76
2021/08/01 01:27:40;;;;;;;2.60;2.55;;;;;;;18.14;85.65;99722.88;5958859;30;20225;-75
2021/08/01 01:30:59;;;;;;;2.60;2.60;;;;;;;18.17;85.52;99716.78;5958211;30;20201;-75
2021/08/01 01:34:11;;;;;;;4.72;3.05;;;;;;;18.11;86.15;99724.28;5957671;30;20261;-76
2021/08/01 01:37:20;;;;;;;3.20;3.10;;;;;;;18.07;85.87;99716.91;5957749;29;20520;-76
2021/08/01 01:40:27;;;;;;;3.20;3.10;;;;;;;18.10;85.92;99710.81;5957762;30;20198;-75
2021/08/01 01:43:39;;;;;;;3.50;3.30;;;;;;;18.11;85.87;99706.91;5957595;29;20201;-75
2021/08/01 01:46:45;;;;;;;3.55;3.20;;;;;;;18.13;85.73;99710.19;5958696;30;20197;-76
2021/08/01 01:49:49;;;;;;;3.05;2.88;;;;;;;18.18;85.58;99712.91;5958780;30;20200;-76
2021/08/01 01:52:56;;;;;;;3.67;3.47;;;;;;;18.17;85.72;99705.75;5957456;30;20392;-75
2021/08/01 01:56:02;;;;;;;3.25;3.15;;;;;;;18.17;85.44;99705.75;5957430;29;20233;-76
2021/08/01 01:59:07;;;;;;;3.22;3.13;;;;;;;18.19;85.16;99706.25;5956857;29;20526;-76
2021/08/01 02:02:11;;;;;;;3.22;3.08;;;;;;;18.23;85.17;99709.28;5957425;30;20485;-75
2021/08/01 02:05:17;;;;;;;3.38;3.13;;;;;;;18.14;85.89;99701.63;5956403;30;20248;-76
2021/08/01 02:08:59;;;;;;;4.45;3.38;;;;;;;18.15;85.71;99713.50;5949816;29;20290;-75
2021/08/01 02:12:43;;;;;;;3.47;3.22;;;;;;;18.09;86.36;99706.38;5936897;29;20564;-75
2021/08/01 02:15:57;;;;;;;3.63;3.53;;;;;;;18.09;86.39;99703.63;5956126;30;20421;-75
2021/08/01 02:19:07;;;;;;;4.88;3.58;;;;;;;18.09;86.02;99704.47;5956656;29;20500;-75
2021/08/01 02:22:17;;;;;;;3.97;3.75;;;;;;;18.12;86.38;99700.28;5956950;30;20200;-75
2021/08/01 02:25:25;;;;;;;3.90;3.60;;;;;;;18.14;85.72;99696.13;5957907;30;20198;-75
2021/08/01 02:28:31;;;;;;;3.60;3.40;;;;;;;18.13;85.92;99693.63;5956291;29;20220;-76
2021/08/01 02:31:36;;;;;;;3.50;3.30;;;;;;;18.10;85.96;99694.25;5955888;30;20209;-75
2021/08/01 02:34:40;;;;;;;6.13;3.38;;;;;;;18.11;85.58;99701.38;5956256;30;20367;-75
2021/08/01 02:37:47;;;;;;;5.30;3.03;;;;;;;18.16;85.31;99687.53;5956059;29;20576;-75
2021/08/01 02:40:56;;;;;;;3.45;3.25;;;;;;;18.18;85.38;99685.28;5956423;29;20232;-75
2021/08/01 02:44:06;;;;;;;5.55;3.33;;;;;;;18.21;85.44;99692.97;5957177;29;20276;-75
2021/08/01 02:47:13;;;;;;;3.47;3.38;;;;;;;18.13;86.07;99691.69;5956691;30;20202;-75
2021/08/01 02:50:22;;;;;;;3.60;3.50;;;;;;;18.15;85.94;99688.66;5957772;30;20260;-75
2021/08/01 02:53:28;;;;;;;3.30;3.20;;;;;;;18.17;85.80;99683.66;5957481;30;20200;-76
2021/08/01 02:56:36;;;;;;;3.83;3.22;;;;;;;18.09;86.08;99687.06;5957703;30;20221;-75
2021/08/01 02:59:44;;;;;;;3.58;3.28;;;;;;;18.11;85.95;99691.19;5956733;29;20287;-75
2021/08/01 03:02:50;;;;;;;3.45;3.25;;;;;;;17.95;86.73;99695.22;5955768;29;20209;-75
2021/08/01 03:05:57;;;;;;;3.47;3.25;;;;;;;18.04;86.66;99695.41;5955708;29;20271;-75
2021/08/01 03:09:03;;;;;;;3.80;3.50;;;;;;;18.00;86.14;99695.16;5956471;29;20198;-75
2021/08/01 03:12:13;;;;;;;3.53;3.35;;;;;;;18.00;86.22;99695.16;5956308;29;20194;-75
2021/08/01 03:15:20;;;;;;;3.78;3.72;;;;;;;18.03;86.71;99707.53;5957452;30;20274;-76
2021/08/01 03:18:25;;;;;;;4.47;3.50;;;;;;;17.96;86.99;99704.31;5956214;30;20427;-75
2021/08/01 03:21:32;;;;;;;4.03;3.72;;;;;;;18.01;86.61;99709.78;5956124;30;20194;-75
2021/08/01 03:24:43;;;;;;;3.38;3.17;;;;;;;18.02;86.32;99714.19;5955980;29;20521;-75
2021/08/01 03:27:57;;;;;;;3.70;3.50;;;;;;;18.07;86.33;99716.91;5956297;30;20221;-76
2021/08/01 03:31:02;;;;;;;4.03;3.38;;;;;;;18.02;86.68;99711.44;5956125;30;20193;-76
2021/08/01 03:34:13;;;;;;;5.30;3.90;;;;;;;18.02;86.79;99714.19;5955587;29;20210;-76
2021/08/01 03:37:19;;;;;;;3.97;3.67;;;;;;;17.99;87.10;99712.03;5957606;30;20229;-76
2021/08/01 03:40:51;;;;;;;3.47;3.40;;;;;;;18.03;86.69;99715.81;5942336;30;20220;-75
2021/08/01 03:43:57;;;;;;;3.60;3.50;;;;;;;18.06;85.85;99726.28;5956129;29;20210;-76
2021/08/01 03:47:05;;;;;;;3.78;3.60;;;;;;;18.02;86.06;99714.19;5961328;30;20205;-75
2021/08/01 03:50:11;;;;;;;3.30;3.20;;;;;;;18.02;86.25;99725.25;5961255;30;20257;-75
2021/08/01 03:53:15;;;;;;;3.83;3.63;;;;;;;18.01;86.41;99713.38;5959891;30;20201;-76
2021/08/01 03:56:19;;;;;;;3.75;3.45;;;;;;;17.98;86.63;99713.13;5961011;30;20256;-75
2021/08/01 03:59:25;;;;;;;3.40;3.33;;;;;;;18.00;86.39;99710.91;5960799;30;20193;-76
2021/08/01 04:02:29;;;;;;;3.80;3.60;;;;;;;17.95;86.76;99716.50;5960888;29;20289;-76
2021/08/01 04:05:33;;;;;;;4.47;4.03;;;;;;;17.99;86.07;99717.53;5959578;30;20245;-75
2021/08/01 04:08:38;;;;;;;3.55;3.45;;;;;;;17.96;86.02;99710.66;5959469;30;20368;-76
2021/08/01 04:11:44;;;;;;;3.67;3.47;;;;;;;17.96;85.25;99718.13;5960831;30;20193;-75
2021/08/01 04:14:49;;;;;;;4.30;4.05;;;;;;;17.94;85.12;99723.13;5960381;30;20198;-76
2021/08/01 04:17:55;;;;;;;4.18;3.50;;;;;;;17.87;85.73;99728.16;5959327;29;20444;-76
2021/08/01 04:21:00;;;;;;;3.65;3.45;;;;;;;17.90;85.51;99730.31;5958757;29;20210;-75
2021/08/01 04:24:05;;;;;;;4.57;3.67;;;;;;;17.90;85.74;99711.81;5960556;30;20201;-75
2021/08/01 04:27:09;;;;;;;3.88;3.67;;;;;;;17.96;85.68;99720.88;5959559;29;20397;-76
2021/08/01 04:30:15;;;;;;;3.72;3.53;;;;;;;17.96;86.13;99729.16;5959853;30;20201;-76
2021/08/01 04:33:20;;;;;;;3.28;3.10;;;;;;;18.04;85.58;99728.53;5960024;30;20279;-76
2021/08/01 04:36:24;;;;;;;3.47;3.38;;;;;;;17.91;86.30;99740.25;5959841;30;20249;-76
2021/08/01 04:39:29;;;;;;;3.20;3.10;;;;;;;17.96;85.92;99737.44;5959355;30;20194;-76
2021/08/01 04:42:36;;;;;;;3.83;3.58;;;;;;;17.98;86.77;99735.19;5959798;30;20202;-76
2021/08/01 04:45:42;;;;;;;4.03;3.78;;;;;;;17.89;87.73;99745.25;5960163;30;20257;-76
2021/08/01 04:48:46;;;;;;;3.22;3.13;;;;;;;17.95;87.32;99735.81;5958862;30;20399;-76
2021/08/01 04:51:50;;;;;;;4.72;3.80;;;;;;;17.97;86.79;99739.09;5959243;30;20197;-76
2021/08/01 04:54:55;;;;;;;3.88;3.58;;;;;;;18.10;86.40;99743.91;5958542;29;20277;-76
2021/08/01 04:57:59;;;;;;;3.63;3.40;;;;;;;18.14;86.79;99739.44;5959687;30;20221;-76
2021/08/01 05:01:11;;;;;;;3.28;3.17;;;;;;;18.18;86.26;99737.72;5959416;30;20265;-76
2021/08/01 05:04:16;;;;;;;3.40;3.33;;;;;;;18.24;86.20;99739.34;5958536;30;20322;-75
2021/08/01 05:07:20;;;;;;;4.90;3.60;;;;;;;18.31;85.77;99739.78;5959585;30;20201;-75
2021/08/01 05:10:24;;;;;;;3.88;3.78;;;;;;;18.28;85.56;99745.94;5959266;30;20224;-75
2021/08/01 05:13:28;;;;;;;4.00;3.80;;;;;;;18.25;85.86;99752.03;5958273;29;20198;-76
2021/08/01 05:16:34;;;;;;;3.90;3.72;;;;;;;18.20;86.33;99749.34;5958764;29;20202;-75
2021/08/01 05:19:40;;;;;;;3.60;3.42;;;;;;;18.23;86.45;99754.28;5959075;30;20202;-76
2021/08/01 05:22:45;;;;;;;3.70;3.40;;;;;;;18.31;86.10;99756.34;5959240;30;20197;-76
2021/08/01 05:25:49;;;;;;;6.43;3.42;;;;;;;18.35;85.75;99768.47;5957860;30;20252;-76
2021/08/01 05:28:53;;;;;;;3.60;3.38;;;;;;;18.38;85.69;99754.09;5958864;30;20236;-75
2021/08/01 05:31:59;;;;;;;8.90;3.63;;;;;;;18.32;86.04;99760.78;5958436;30;20243;-76
2021/08/01 05:35:03;;;;;;;3.75;3.55;;;;;;;18.28;86.58;99767.19;5959138;30;20193;-76
2021/08/01 05:38:10;;;;;;;4.13;3.80;;;;;;;18.29;86.04;99775.16;5957630;29;20222;-76
2021/08/01 05:41:15;;;;;;;4.53;3.58;;;;;;;18.30;85.67;99776.00;5958108;30;20194;-76
2021/08/01 05:44:19;;;;;;;3.85;3.67;;;;;;;18.28;85.80;99779.06;5957555;30;20377;-75
2021/08/01 05:47:25;;;;;;;3.90;3.67;;;;;;;18.31;85.60;99767.41;5957524;30;20435;-76
2021/08/01 05:50:29;;;;;;;11.23;3.72;;;;;;;18.31;85.43;99767.41;5957420;30;20427;-75
2021/08/01 05:53:33;;;;;;;3.95;3.63;;;;;;;18.24;85.75;99780.75;5958334;30;20194;-76
2021/08/01 05:56:37;;;;;;;4.63;3.92;;;;;;;18.26;85.50;99789.56;5958214;30;20193;-75
2021/08/01 05:59:41;;;;;;;5.63;4.20;;;;;;;18.28;84.33;99787.34;5957294;29;20249;-75
2021/08/01 06:02:46;;;;;;;3.75;3.65;;;;;;;18.35;84.05;99793.34;5957493;30;20539;-75
2021/08/01 06:05:54;;;;;;;3.72;3.53;;;;;;;18.37;83.66;99788.34;5956080;30;20606;-76
2021/08/01 06:08:58;;;;;;;4.65;3.60;;;;;;;18.34;83.65;99793.59;5957721;29;20256;-75
2021/08/01 06:12:02;;;;;;;5.50;3.42;;;;;;;18.32;83.67;99795.84;5958180;30;20193;-75
2021/08/01 06:15:08;;;;;;;4.63;3.60;;;;;;;18.42;83.43;99802.09;5956976;30;20243;-75
2021/08/01 06:18:15;;;;;;;3.45;3.30;;;;;;;18.41;83.69;99805.94;5958094;29;20225;-75
2021/08/01 06:21:21;;;;;;;4.07;3.78;;;;;;;18.42;83.76;99810.38;5956801;30;20231;-75
2021/08/01 06:24:26;;;;;;;6.60;4.00;;;;;;;18.43;83.63;99814.78;5957745;30;20200;-75
2021/08/01 06:27:30;;;;;;;4.20;3.80;;;;;;;18.51;82.95;99816.13;5958014;30;20229;-75
2021/08/01 06:30:35;;;;;;;4.10;3.80;;;;;;;18.54;82.67;99829.34;5958166;29;20197;-75
2021/08/01 06:33:42;;;;;;;3.88;3.63;;;;;;;18.57;82.03;99821.28;5956692;30;20216;-75
2021/08/01 06:36:46;;;;;;;4.47;3.88;;;;;;;18.51;81.44;99822.47;5956803;30;20324;-75
2021/08/01 06:39:50;;;;;;;4.05;3.85;;;;;;;18.49;82.50;99830.19;5956545;30;20575;-74
2021/08/01 06:42:54;;;;;;;3.60;3.40;;;;;;;18.45;82.12;99828.28;5956577;29;20209;-74
2021/08/01 06:45:59;;;;;;;4.15;3.80;;;;;;;18.56;82.04;99827.09;5956515;30;20481;-76
2021/08/01 06:49:05;;;;;;;3.97;3.78;;;;;;;18.47;81.98;99821.38;5957271;30;20204;-75
2021/08/01 06:52:11;;;;;;;4.68;3.95;;;;;;;18.51;82.32;99830.75;5957633;30;20193;-74
2021/08/01 06:55:15;;;;;;;4.00;3.70;;;;;;;18.63;82.10;99830.31;5957395;30;20248;-75
2021/08/01 06:58:20;;;;;;;4.07;3.72;;;;;;;18.60;82.31;99837.25;5957450;30;20228;-76
2021/08/01 07:01:24;;;;;;;3.70;3.40;;;;;;;18.74;82.40;99832.69;5957489;29;20273;-75
2021/08/01 07:04:31;;;;;;;4.10;3.85;;;;;;;18.86;81.38;99832.25;5955789;29;20427;-75
2021/08/01 07:07:38;;;;;;;4.72;3.55;;;;;;;18.88;81.29;99837.47;5957806;30;20193;-75
2021/08/01 07:10:42;;;;;;;4.45;3.65;;;;;;;19.16;81.63;99839.31;5956922;30;20370;-75
2021/08/01 07:13:48;;;;;;;3.60;3.50;;;;;;;19.32;80.31;99832.47;5957796;30;20258;-76
2021/08/01 07:16:52;;;;;;;3.88;3.67;;;;;;;19.23;80.70;99845.31;5956193;30;20505;-76
2021/08/01 07:19:58;;;;;;;5.22;3.63;;;;;;;19.37;80.35;99837.94;5959279;30;20266;-76
2021/08/01 07:23:05;;;;;;;3.35;3.15;;;;;;;19.45;78.76;99848.34;5961633;30;20251;-75
2021/08/01 07:26:11;;;;;;;3.28;3.10;;;;;;;19.40;79.67;99850.34;5960413;30;20537;-75
2021/08/01 07:29:16;;;;;;;3.58;3.47;;;;;;;19.32;78.94;99854.59;5961185;30;20205;-75
2021/08/01 07:32:20;;;;;;;3.42;3.28;;;;;;;19.46;78.17;99838.94;5960662;30;20461;-75
2021/08/01 07:35:26;;;;;;;4.70;3.13;;;;;;;19.49;77.83;99860.44;5961364;30;20193;-76
2021/08/01 07:38:31;;;;;;;2.95;2.72;;;;;;;19.53;78.50;99867.03;5959751;29;20235;-75
2021/08/01 07:41:35;;;;;;;3.10;2.90;;;;;;;19.49;77.79;99860.44;5961398;30;20194;-75
2021/08/01 07:44:48;;;;;;;4.13;2.90;;;;;;;19.69;78.22;99873.16;5961408;30;20194;-75
2021/08/01 07:47:53;;;;;;;4.22;2.92;;;;;;;19.79;76.30;99876.59;5959986;30;20395;-75
2021/08/01 07:50:59;;;;;;;6.32;2.83;;;;;;;19.91;76.17;99874.19;5961035;30;20193;-75
2021/08/01 07:54:05;;;;;;;3.85;3.05;;;;;;;19.90;76.12;99878.06;5960782;30;20200;-75
2021/08/01 07:57:22;;;;;;;3.35;3.25;;;;;;;19.84;76.64;99884.84;5960661;30;20194;-75
2021/08/01 08:00:26;;;;;;;2.88;2.78;;;;;;;20.02;75.78;99890.63;5960430;30;20280;-75
2021/08/01 08:03:31;;;;;;;5.57;2.90;;;;;;;20.00;75.04;99900.06;5959997;30;20225;-75
2021/08/01 08:06:39;;;;;;;3.15;2.65;;;;;;;20.00;74.80;99893.72;5960649;30;20193;-75
2021/08/01 08:09:44;;;;;;;2.63;2.63;;;;;;;20.11;74.34;99899.91;5961005;30;20198;-76
2021/08/01 08:12:48;;;;;;;3.00;2.90;;;;;;;20.05;74.46;99892.81;5959470;30;20431;-76
2021/08/01 08:15:52;;;;;;;3.05;2.85;;;;;;;20.11;73.85;99889.63;5960407;30;20200;-76
2021/08/01 08:18:56;;;;;;;5.60;2.50;;;;;;;20.21;73.10;99888.66;5959422;29;20394;-75
2021/08/01 08:22:02;;;;;;;2.78;2.65;;;;;;;20.21;72.05;99888.66;5959084;30;20456;-75
2021/08/01 08:25:08;;;;;;;4.32;2.33;;;;;;;20.11;71.75;99884.09;5959145;30;20201;-75
2021/08/01 08:28:12;;;;;;;2.55;2.50;;;;;;;20.04;72.05;99896.69;5959068;30;20540;-76
2021/08/01 08:31:16;;;;;;;6.35;2.70;;;;;;;20.11;71.52;99900.72;5959812;29;20194;-76
2021/08/01 08:34:22;;;;;;;2.80;2.58;;;;;;;20.09;70.80;99897.44;5958902;30;20595;-75
2021/08/01 08:37:28;;;;;;;2.65;2.38;;;;;;;20.19;70.86;99890.88;5959918;30;20194;-75
2021/08/01 08:40:37;;;;;;;2.70;2.53;;;;;;;20.27;70.09;99893.81;5959595;30;20222;-75
2021/08/01 08:43:43;;;;;;;2.70;2.45;;;;;;;20.30;70.80;99903.47;5959684;30;20427;-75
2021/08/01 08:46:48;;;;;;;4.75;2.30;;;;;;;20.24;70.82;99899.16;5959666;29;20257;-75
2021/08/01 08:49:56;;;;;;;7.03;2.85;;;;;;;20.21;73.81;99902.50;5959022;30;20278;-75
2021/08/01 08:53:04;;;;;;;3.53;3.13;;;;;;;20.27;76.18;99904.09;5958683;30;20324;-75
2021/08/01 08:56:11;;;;;;;3.30;3.10;;;;;;;20.36;76.80;99913.34;5959643;30;20193;-76
2021/08/01 08:59:18;;;;;;;2.70;2.50;;;;;;;20.39;77.82;99908.00;5959725;30;20225;-76
2021/08/01 09:02:23;;;;;;;2.88;2.70;;;;;;;20.29;78.40;99912.91;5958715;30;20218;-76
2021/08/01 09:05:27;;;;;;;2.85;2.78;;;;;;;20.26;77.98;99913.53;5958649;30;20253;-76
2021/08/01 09:08:36;;;;;;;2.65;2.53;;;;;;;20.20;76.54;99912.75;5959512;30;20229;-76
2021/08/01 09:11:40;;;;;;;2.83;2.65;;;;;;;20.19;76.02;99915.81;5959538;30;20233;-76
2021/08/01 09:14:45;;;;;;;2.80;2.60;;;;;;;20.19;74.96;99919.41;5959176;30;20194;-76
2021/08/01 09:18:12;;;;;;;3.33;3.13;;;;;;;20.22;75.75;99917.97;5958950;30;20193;-75
2021/08/01 09:21:35;;;;;;;3.17;2.97;;;;;;;20.26;76.52;99913.53;5959468;30;20221;-76
2021/08/01 09:24:46;;;;;;;2.63;2.50;;;;;;;20.33;75.14;99908.41;5959044;30;20225;-75
2021/08/01 09:27:50;;;;;;;2.60;2.50;;;;;;;20.37;73.57;99920.53;5958903;29;20213;-75
2021/08/01 09:30:57;;;;;;;3.72;2.78;;;;;;;20.40;74.59;99914.38;5958934;30;20278;-75
2021/08/01 09:34:01;;;;;;;5.13;2.60;;;;;;;20.52;73.67;99912.75;5958846;29;20200;-75
2021/08/01 09:37:07;;;;;;;2.67;2.47;;;;;;;20.65;70.79;99916.69;5958641;30;20194;-75
2021/08/01 09:40:15;;;;;;;2.50;2.40;;;;;;;20.71;70.41;99909.09;5957804;30;20528;-75
2021/08/01 09:43:21;;;;;;;6.57;2.38;;;;;;;20.78;69.39;99915.88;5958072;29;20201;-76
2021/08/01 09:46:38;;;;;;;2.30;2.10;;;;;;;20.82;69.99;99911.41;5958226;30;20234;-75
2021/08/01 09:49:42;;;;;;;3.15;2.50;;;;;;;20.88;68.32;99904.59;5959012;30;20197;-76
2021/08/01 09:52:49;;;;;;;2.40;2.30;;;;;;;20.91;68.51;99917.03;5958189;29;20197;-75
2021/08/01 09:56:16;;;;;;;2.72;2.53;;;;;;;20.87;68.87;99914.06;5957842;30;20197;-76
2021/08/01 09:59:22;;;;;;;2.22;2.13;;;;;;;20.89;67.76;99911.81;5958415;29;20229;-75
2021/08/01 10:02:37;;;;;;;2.10;2.00;;;;;;;20.90;65.45;99913.44;5957406;29;20388;-75
2021/08/01 10:05:42;;;;;;;2.42;2.28;;;;;;;20.85;65.05;99913.53;5958029;30;20261;-75
2021/08/01 10:08:48;;;;;;;2.78;2.40;;;;;;;20.98;65.68;99912.72;5957240;30;20256;-75
2021/08/01 10:11:55;;;;;;;3.90;2.47;;;;;;;21.09;65.02;99914.19;5957217;30;20392;-75
2021/08/01 10:15:01;;;;;;;4.60;2.10;;;;;;;21.05;64.07;99910.38;5957648;30;20440;-75
2021/08/01 10:18:13;;;;;;;2.58;2.33;;;;;;;21.23;63.42;99911.44;5957852;30;20200;-75
2021/08/01 10:21:22;;;;;;;3.55;2.08;;;;;;;21.17;60.80;99912.66;5956966;30;20524;-76
2021/08/01 10:24:27;;;;;;;2.28;2.03;;;;;;;21.21;62.77;99913.69;5958286;30;20219;-75
2021/08/01 10:27:34;;;;;;;4.10;2.15;;;;;;;21.19;63.01;99911.22;5957752;30;20307;-76
2021/08/01 10:30:41;;;;;;;3.10;2.30;;;;;;;21.26;62.61;99921.09;5957883;30;20362;-75
2021/08/01 10:33:59;;;;;;;2.38;2.30;;;;;;;21.14;63.27;99925.19;5956982;30;20205;-75
2021/08/01 10:37:06;;;;;;;2.40;2.00;;;;;;;21.36;63.97;99918.09;5958146;30;20193;-75
2021/08/01 10:40:13;;;;;;;5.05;2.30;;;;;;;21.46;61.45;99915.09;5957651;30;20225;-75
2021/08/01 10:43:26;;;;;;;3.50;2.10;;;;;;;21.39;61.31;99926.59;5956554;30;20199;-75
2021/08/01 10:46:39;;;;;;;2.40;2.00;;;;;;;21.41;62.20;99927.13;5957320;30;20193;-75
2021/08/01 10:49:47;;;;;;;2.08;1.98;;;;;;;21.56;62.09;99942.63;5958681;30;20194;-75
2021/08/01 10:53:11;;;;;;;7.13;2.47;;;;;;;21.55;61.90;99929.88;5958109;29;20193;-75
2021/08/01 10:56:34;;;;;;;4.35;2.17;;;;;;;21.73;60.84;99932.50;5961305;30;20400;-76
2021/08/01 11:00:08;;;;;;;1.98;1.90;;;;;;;21.71;60.65;99929.22;5962324;30;20194;-76
2021/08/01 11:03:17;;;;;;;3.67;2.15;;;;;;;21.84;60.46;99922.00;5962038;29;20241;-76
2021/08/01 11:06:44;;;;;;;3.25;1.80;;;;;;;21.75;59.45;99929.44;5961511;30;20194;-76
2021/08/01 11:10:21;;;;;;;3.58;2.15;;;;;;;21.80;58.69;99926.53;5960781;30;20493;-76
2021/08/01 11:13:42;;;;;;;2.70;1.70;;;;;;;21.94;58.39;99927.34;5960717;30;20193;-76
2021/08/01 11:16:53;;;;;;;1.70;1.60;;;;;;;21.98;57.11;99933.09;5961422;30;20313;-76
2021/08/01 11:20:01;;;;;;;2.28;1.95;;;;;;;21.91;56.88;99939.06;5961320;30;20193;-76
2021/08/01 11:23:07;;;;;;;4.00;2.63;;;;;;;21.90;56.20;99956.88;5961623;30;20260;-76
2021/08/01 11:26:13;;;;;;;2.95;2.13;;;;;;;21.84;58.23;99949.75;5961436;30;20193;-78
2021/08/01 11:29:21;;;;;;;3.13;2.50;;;;;;;21.67;58.51;99946.81;5961724;30;20194;-76
2021/08/01 11:32:26;;;;;;;2.72;2.20;;;;;;;21.72;57.73;99946.72;5960151;29;20214;-76
2021/08/01 11:35:31;;;;;;;2.03;1.90;;;;;;;21.81;57.85;99953.16;5960333;30;20489;-77
2021/08/01 11:38:58;;;;;;;3.33;2.22;;;;;;;21.91;56.11;99955.72;5960580;30;20202;-76
2021/08/01 11:42:03;;;;;;;3.45;3.22;;;;;;;21.99;55.58;99962.50;5959840;30;20447;-74
2021/08/01 11:45:13;;;;;;;2.58;2.47;;;;;;;22.11;53.78;99958.03;5960852;30;20193;-75
2021/08/01 11:48:19;;;;;;;4.03;2.40;;;;;;;22.19;52.68;99954.50;5960994;30;20201;-76
2021/08/01 11:51:27;;;;;;;2.40;2.20;;;;;;;22.13;52.79;99958.56;5960777;30;20208;-75
2021/08/01 11:54:32;;;;;;;5.10;2.58;;;;;;;22.16;53.68;99960.69;5960340;29;20265;-75
2021/08/01 11:57:37;;;;;;;2.15;2.15;;;;;;;22.26;53.04;99963.22;5960016;30;20198;-75
2021/08/01 12:00:43;;;;;;;2.38;2.28;;;;;;;22.19;50.83;99973.94;5960928;29;20281;-74
2021/08/01 12:03:49;;;;;;;3.17;2.20;;;;;;;22.12;51.33;99964.41;5960040;30;20242;-75
2021/08/01 12:07:06;;;;;;;4.50;2.03;;;;;;;22.12;50.54;99968.00;5959060;30;20489;-76
2021/08/01 12:10:20;;;;;;;2.85;2.20;;;;;;;22.10;50.26;99964.72;5959588;30;20511;-75
2021/08/01 12:13:24;;;;;;;2.80;2.10;;;;;;;22.13;51.01;99964.09;5960370;30;20205;-74
2021/08/01 12:16:28;;;;;;;3.38;1.98;;;;;;;22.26;51.74;99973.53;5959549;29;20468;-75
2021/08/01 12:19:35;;;;;;;2.92;1.98;;;;;;;;;;5960681;29;20194;-75
2021/08/01 12:22:40;;;;;;;4.90;2.30;;;;;;;22.37;48.45;99980.47;5959706;30;20445;-74
2021/08/01 12:25:47;;;;;;;5.80;1.88;;;;;;;22.48;47.50;99986.59;5959009;30;20410;-76
2021/08/01 12:28:51;;;;;;;2.55;2.05;;;;;;;22.60;49.96;99989.63;5958996;30;20373;-75
2021/08/01 12:31:56;;;;;;;3.97;1.83;;;;;;;22.71;48.67;99988.25;5959702;30;20198;-76
2021/08/01 12:35:08;;;;;;;7.05;2.20;;;;;;;22.83;47.51;99977.38;5958940;30;20225;-75
2021/08/01 12:38:14;;;;;;;8.50;2.25;;;;;;;22.87;48.00;99978.38;5960347;30;20242;-76
2021/08/01 12:41:20;;;;;;;2.25;1.90;;;;;;;22.88;46.36;99991.16;5960085;30;20221;-76
2021/08/01 12:44:24;;;;;;;3.38;2.20;;;;;;;22.90;45.26;100005.56;5958797;30;20391;-77
2021/08/01 12:47:32;;;;;;;4.10;2.65;;;;;;;22.91;46.00;100001.63;5958714;30;20387;-75
2021/08/01 12:50:49;;;;;;;3.55;2.10;;;;;;;22.96;44.26;99993.13;5959974;30;20225;-76
2021/08/01 12:53:58;;;;;;;4.63;2.00;;;;;;;22.75;43.78;99995.63;5958695;30;20393;-76
2021/08/01 12:57:08;;;;;;;2.55;2.10;;;;;;;23.00;44.33;99996.94;5959540;30;20194;-76
2021/08/01 13:00:16;;;;;;;3.30;1.80;;;;;;;23.00;43.03;100000.56;5959430;30;20201;-76
2021/08/01 13:03:31;;;;;;;1.80;1.80;;;;;;;22.99;42.74;100009.19;5958813;30;20245;-75
2021/08/01 13:06:37;;;;;;;56.67;35.05;;;;;;;22.84;44.80;100023.50;5958871;30;20194;-76
2021/08/01 13:09:41;;;;;;;9.18;8.30;;;;;;;22.79;43.57;100012.50;5959281;30;20193;-76
2021/08/01 13:13:11;;;;;;;2.40;2.10;;;;;;;22.78;45.16;100024.75;5959175;30;20281;-77
2021/08/01 13:16:15;;;;;;;2.20;2.00;;;;;;;22.69;45.04;100021.13;5957925;29;20193;-75
2021/08/01 13:19:27;;;;;;;4.68;1.90;;;;;;;22.69;43.90;100027.50;5959124;30;20358;-75
2021/08/01 13:22:34;;;;;;;1.95;1.80;;;;;;;22.67;44.43;100015.06;5959203;30;20259;-76
2021/08/01 13:25:42;;;;;;;2.17;1.92;;;;;;;22.76;45.29;100021.47;5958881;30;20193;-76
2021/08/01 13:28:48;;;;;;;2.33;2.13;;;;;;;22.84;43.50;100026.28;5959131;30;20194;-76
2021/08/01 13:31:52;;;;;;;5.45;2.20;;;;;;;22.82;44.91;100032.19;5957774;30;20246;-76
2021/08/01 13:34:58;;;;;;;5.07;1.85;;;;;;;22.91;43.93;100033.03;5959244;30;20205;-76
2021/08/01 13:38:05;;;;;;;1.95;1.85;;;;;;;22.82;42.80;100036.91;5958989;30;20194;-76
2021/08/01 13:41:19;;;;;;;2.58;1.70;;;;;;;22.86;43.37;100040.69;5957695;30;20378;-76
2021/08/01 13:44:23;;;;;;;2.05;1.95;;;;;;;22.81;44.41;100040.81;5957658;30;20484;-76
2021/08/01 13:47:32;;;;;;;5.47;2.03;;;;;;;22.78;45.14;100052.56;5958649;30;20205;-76
2021/08/01 13:50:38;;;;;;;3.08;1.90;;;;;;;22.77;45.52;100049.00;5956832;30;20193;-76
2021/08/01 13:53:45;;;;;;;2.25;2.03;;;;;;;22.81;45.26;100046.38;5958461;30;20197;-77
2021/08/01 13:56:49;;;;;;;1.80;1.70;;;;;;;23.02;44.91;100040.00;5958329;30;20257;-76
2021/08/01 13:59:57;;;;;;;3.05;1.63;;;;;;;23.10;43.32;100046.75;5958539;30;20217;-76
2021/08/01 14:03:06;;;;;;;2.75;1.52;;;;;;;23.13;41.95;100053.63;5957932;30;20346;-76
2021/08/01 14:06:10;;;;;;;17.55;12.52;;;;;;;23.07;43.09;100055.72;5957670;30;20237;-77
2021/08/01 14:09:19;;;;;;;5.63;5.22;;;;;;;22.89;43.19;100053.97;5957264;30;20193;-76
2021/08/01 14:12:26;;;;;;;1.73;1.63;;;;;;;22.91;42.92;100051.69;5957057;30;20265;-76
2021/08/01 14:15:30;;;;;;;3.70;1.85;;;;;;;22.77;42.54;100062.06;5958384;30;20219;-77
2021/08/01 14:18:34;;;;;;;1.60;1.48;;;;;;;22.84;43.10;100056.88;5958929;30;20200;-77
2021/08/01 14:21:39;;;;;;;1.90;1.58;;;;;;;22.95;42.91;100052.72;5958621;29;20569;-77
2021/08/01 14:24:45;;;;;;;1.70;1.52;;;;;;;23.02;44.76;100055.84;5958202;30;20249;-76
2021/08/01 14:27:49;;;;;;;5.53;1.73;;;;;;;23.03;43.89;100060.28;5958044;29;20193;-76
2021/08/01 14:30:59;;;;;;;1.88;1.77;;;;;;;22.95;43.28;100055.50;5957993;30;20193;-76
2021/08/01 14:34:03;;;;;;;4.60;4.32;;;;;;;22.79;44.39;100051.44;5957738;30;20201;-77
2021/08/01 14:37:10;;;;;;;8.07;3.40;;;;;;;22.79;45.89;100054.22;5957206;30;20202;-77
2021/08/01 14:40:19;;;;;;;2.15;2.05;;;;;;;22.84;45.03;100059.66;5957712;30;20193;-77
2021/08/01 14:43:24;;;;;;;4.50;1.70;;;;;;;22.92;44.66;100058.91;5957288;30;20221;-77